Flugschule und Pilotenausbildung

Wir bieten eine professionelle und umfassende Ausbildung durch unsere erfahrenen Piloten, Fluglehrer und Prüfer, die Sie zum Erwerb der folgenden Lizenzen führen:

 

Schulungsräume

Je nach Teilnehmerzahl findet der Unterricht in zwei vollausgestatteten Räumen statt.

 Bis 5 Teilnehmer in Feldgeding bei Dachau:

Schulungsraum Feldgeding

Bei 6 oder mehr Teilnehmern in Gröbenzell:

Schulungsraum Gröbenzell

Flugzeuge

Wir schulen auf unseren eigenen Flugzeugen. Mehr Informationen zu unseren Flugzeugen finden Sie hier ...

 

Flugwetter Augsburg

[source: ADDS]
METAR
EDMA 201820Z 30008KT 9999 -RA SCT007 BKN009 OVC076 14/13 Q1025 =
TAF EDMA 201700Z 2018/2103 33010KT 8000 BKN008 TEMPO 2018/2024 SCT008 BKN014 PROB30 TEMPO 2018/2103 4000 RADZ BKN004 BECMG 2019/2021 VRB03KT
TAF
TAF EDMA 201700Z 2018/2103 33010KT 8000 BKN008 TEMPO 2018/2024 SCT008 BKN014 PROB30 TEMPO 2018/2103 4000 RADZ BKN004 BECMG 2019/2021 VRB03KT =
Cookies erleichtern die Bereitstellung unserer Dienste. Mit der Nutzung unserer Dienste erklären Sie sich damit einverstanden, dass wir Cookies verwenden.
Weitere Informationen Ok